createdAt,value
2018-05-11T00:01:33.171Z,10.63
2018-05-11T00:04:00.623Z,10.77
2018-05-11T00:06:28.053Z,10.20
2018-05-11T00:08:55.495Z,8.67
2018-05-11T00:11:22.934Z,6.40
2018-05-11T00:13:51.142Z,11.60
2018-05-11T00:16:19.342Z,9.10
2018-05-11T00:18:47.562Z,8.43
2018-05-11T00:21:14.998Z,6.37
2018-05-11T00:23:42.422Z,8.43
2018-05-11T00:26:09.864Z,8.40
2018-05-11T00:28:37.322Z,6.77
2018-05-11T00:31:04.746Z,6.10
2018-05-11T00:33:32.945Z,6.53
2018-05-11T00:36:00.377Z,11.10
2018-05-11T00:38:27.813Z,15.83
2018-05-11T00:40:56.036Z,8.20
2018-05-11T00:43:24.242Z,12.37
2018-05-11T00:45:51.681Z,6.70
2018-05-11T00:48:19.119Z,6.50
2018-05-11T00:50:46.550Z,7.70
2018-05-11T00:53:13.986Z,13.00
2018-05-11T00:55:50.322Z,11.57
2018-05-11T00:58:17.755Z,7.60
2018-05-11T01:00:45.195Z,8.87
2018-05-11T01:03:12.635Z,7.43
2018-05-11T01:05:40.079Z,7.90
2018-05-11T01:08:08.275Z,7.67
2018-05-11T01:10:36.482Z,10.20
2018-05-11T01:13:03.913Z,7.73
2018-05-11T01:15:31.363Z,7.30
2018-05-11T01:17:58.790Z,7.10
2018-05-11T01:20:26.241Z,11.70
2018-05-11T01:22:53.678Z,14.13
2018-05-11T01:25:21.889Z,12.10
2018-05-11T01:27:50.082Z,9.70
2018-05-11T01:30:18.295Z,12.83
2018-05-11T01:32:45.725Z,9.03
2018-05-11T01:35:13.165Z,7.47
2018-05-11T01:37:40.596Z,9.60
2018-05-11T01:40:08.054Z,6.27
2018-05-11T01:42:35.486Z,7.80
2018-05-11T01:45:03.699Z,12.97
2018-05-11T01:47:31.125Z,6.73
2018-05-11T01:49:59.335Z,5.87
2018-05-11T01:52:26.772Z,9.23
2018-05-11T01:54:54.209Z,7.13
2018-05-11T01:57:21.641Z,13.87
2018-05-11T01:59:49.064Z,12.53
2018-05-11T02:02:16.514Z,10.93
2018-05-11T02:04:43.950Z,7.53
2018-05-11T02:07:11.394Z,16.77
2018-05-11T02:09:38.826Z,11.87
2018-05-11T02:12:07.034Z,14.30
2018-05-11T02:14:34.466Z,9.37
2018-05-11T02:17:01.906Z,15.87
2018-05-11T02:19:29.337Z,8.20
2018-05-11T02:21:56.777Z,9.97
2018-05-11T02:24:24.209Z,12.70
2018-05-11T02:26:51.650Z,5.50
2018-05-11T02:29:19.091Z,6.17
2018-05-11T02:31:47.285Z,5.37
2018-05-11T02:34:15.485Z,12.00
2018-05-11T02:36:43.688Z,9.33
2018-05-11T02:39:11.897Z,10.47
2018-05-11T02:41:40.103Z,8.07
2018-05-11T02:44:07.546Z,8.30
2018-05-11T02:46:34.982Z,6.03
2018-05-11T02:49:02.415Z,8.37
2018-05-11T02:51:29.849Z,8.13
2018-05-11T02:53:57.273Z,5.90
2018-05-11T02:56:24.710Z,8.10
2018-05-11T02:58:52.145Z,10.50
2018-05-11T03:01:19.598Z,10.77
2018-05-11T03:03:47.041Z,5.90
2018-05-11T03:06:15.229Z,5.83
2018-05-11T03:08:43.430Z,5.70
2018-05-11T03:11:11.634Z,7.40
2018-05-11T03:13:39.830Z,8.23
2018-05-11T03:16:08.061Z,5.77
2018-05-11T03:18:35.537Z,6.73
2018-05-11T03:21:02.934Z,9.80
2018-05-11T03:23:30.366Z,8.00
2018-05-11T03:25:58.575Z,6.83
2018-05-11T03:28:26.770Z,9.03
2018-05-11T03:30:54.978Z,9.93
2018-05-11T03:33:23.177Z,6.40
2018-05-11T03:35:51.382Z,6.53
2018-05-11T03:38:19.587Z,9.30
2018-05-11T03:40:47.794Z,5.80
2018-05-11T03:43:15.216Z,8.80
2018-05-11T03:45:42.653Z,5.23
2018-05-11T03:48:10.854Z,8.30
2018-05-11T03:50:38.289Z,7.57
2018-05-11T03:53:05.726Z,7.63
2018-05-11T03:55:33.156Z,7.87
2018-05-11T03:58:00.598Z,12.73
2018-05-11T04:00:28.040Z,5.63
2018-05-11T04:03:07.230Z,11.63
2018-05-11T04:05:46.446Z,5.27
2018-05-11T04:08:25.898Z,11.93
2018-05-11T04:10:53.345Z,8.93
2018-05-11T04:13:20.782Z,8.30
2018-05-11T04:15:48.206Z,6.00
2018-05-11T04:18:16.467Z,5.33
2018-05-11T04:20:43.902Z,6.80
2018-05-11T04:23:11.405Z,9.10
2018-05-11T04:25:39.525Z,8.57
2018-05-11T04:28:06.966Z,7.27
2018-05-11T04:30:34.393Z,6.60
2018-05-11T04:33:02.593Z,7.53
2018-05-11T04:35:30.798Z,11.20
2018-05-11T04:37:59.006Z,9.03
2018-05-11T04:40:27.200Z,10.50
2018-05-11T04:42:55.414Z,11.57
2018-05-11T04:45:23.629Z,5.90
2018-05-11T04:47:51.805Z,8.73
2018-05-11T04:50:20.006Z,5.40
2018-05-11T04:52:48.218Z,6.00
2018-05-11T04:55:16.427Z,10.93
2018-05-11T04:57:43.857Z,10.30
2018-05-11T05:00:11.287Z,6.13
2018-05-11T05:02:38.731Z,10.30
2018-05-11T05:05:06.165Z,7.40
2018-05-11T05:07:33.605Z,12.63
2018-05-11T05:10:01.808Z,13.13
2018-05-11T05:12:30.076Z,8.20
2018-05-11T05:14:58.213Z,7.77
2018-05-11T05:17:26.422Z,12.57
2018-05-11T05:19:54.617Z,7.27
2018-05-11T05:22:22.826Z,6.33
2018-05-11T05:24:51.026Z,13.03
2018-05-11T05:27:19.220Z,8.60
2018-05-11T05:29:47.413Z,6.27
2018-05-11T05:32:15.619Z,6.70
2018-05-11T05:34:43.819Z,11.20
2018-05-11T05:37:12.029Z,10.70
2018-05-11T05:39:39.458Z,9.60
2018-05-11T05:42:06.901Z,7.07
2018-05-11T05:44:34.334Z,6.57
2018-05-11T05:47:01.774Z,9.37
2018-05-11T05:49:29.200Z,7.73
2018-05-11T05:51:56.700Z,7.20
2018-05-11T05:54:24.141Z,11.57
2018-05-11T05:56:52.281Z,8.83
2018-05-11T05:59:20.482Z,6.70
2018-05-11T06:01:48.696Z,13.60
2018-05-11T06:04:16.884Z,8.20
2018-05-11T06:06:45.100Z,10.53
2018-05-11T06:09:13.298Z,12.07
2018-05-11T06:11:40.729Z,12.03
2018-05-11T06:14:08.178Z,13.37
2018-05-11T06:16:35.608Z,9.40
2018-05-11T06:19:03.041Z,17.70
2018-05-11T06:21:30.477Z,13.70
2018-05-11T06:23:57.931Z,14.40
2018-05-11T06:26:25.363Z,11.60
2018-05-11T06:28:53.566Z,10.03
2018-05-11T06:31:20.998Z,14.53
2018-05-11T06:33:48.446Z,23.27
2018-05-11T06:36:15.877Z,12.17
2018-05-11T06:38:43.334Z,19.00
2018-05-11T06:41:10.765Z,20.90
2018-05-11T06:43:38.973Z,18.10
2018-05-11T06:46:06.520Z,72.13
2018-05-11T06:48:33.871Z,38.67
2018-05-11T06:51:01.305Z,35.73
2018-05-11T06:53:29.527Z,31.37
2018-05-11T06:55:56.988Z,26.30
2018-05-11T06:58:24.393Z,26.30
2018-05-11T07:00:51.834Z,21.67
2018-05-11T07:03:19.278Z,19.47
2018-05-11T07:05:46.718Z,16.77
2018-05-11T07:08:14.934Z,16.90
2018-05-11T07:10:42.374Z,26.53
2018-05-11T07:13:09.820Z,22.93
2018-05-11T07:15:37.258Z,24.00
2018-05-11T07:18:05.466Z,23.30
2018-05-11T07:20:32.914Z,24.80
2018-05-11T07:23:00.363Z,23.30
2018-05-11T07:25:28.575Z,22.87
2018-05-11T07:27:56.011Z,22.17
2018-05-11T07:32:58.033Z,29.87
2018-05-11T07:35:25.469Z,44.60
2018-05-11T07:37:52.925Z,22.27
2018-05-11T07:40:20.366Z,42.23
2018-05-11T07:42:48.574Z,42.63
2018-05-11T07:45:16.775Z,33.63
2018-05-11T07:47:44.981Z,38.73
2018-05-11T07:50:12.423Z,38.00
2018-05-11T07:52:39.870Z,37.33
2018-05-11T07:55:07.310Z,36.30
2018-05-11T07:57:35.522Z,39.33
2018-05-11T08:00:02.962Z,36.70
2018-05-11T08:02:30.414Z,41.23
2018-05-11T08:04:57.851Z,31.90
2018-05-11T08:07:26.050Z,33.77
2018-05-11T08:09:54.258Z,44.30
2018-05-11T08:12:22.459Z,40.63
2018-05-11T08:14:50.666Z,34.23
2018-05-11T08:17:18.106Z,32.43
2018-05-11T08:19:45.554Z,44.13
2018-05-11T08:22:12.993Z,30.90
2018-05-11T08:24:41.201Z,38.50
2018-05-11T08:27:08.637Z,43.13
2018-05-11T08:29:36.086Z,34.87
2018-05-11T08:32:03.538Z,44.87
2018-05-11T08:34:31.750Z,37.37
2018-05-11T08:36:59.190Z,47.27
2018-05-11T08:39:26.634Z,33.27
2018-05-11T08:41:54.074Z,29.53
2018-05-11T08:44:22.300Z,22.80
2018-05-11T08:46:49.743Z,26.97
2018-05-11T08:49:17.187Z,34.13
2018-05-11T08:51:44.627Z,35.73
2018-05-11T08:54:12.847Z,40.40
2018-05-11T08:56:40.298Z,42.90
2018-05-11T08:59:07.729Z,38.13
2018-05-11T09:01:35.166Z,33.40
2018-05-11T09:04:02.622Z,30.40
2018-05-11T09:06:30.054Z,27.97
2018-05-11T09:08:57.501Z,31.37
2018-05-11T09:11:24.948Z,28.43
2018-05-11T09:13:52.403Z,33.73
2018-05-11T09:16:19.838Z,27.90
2018-05-11T09:18:47.291Z,25.67
2018-05-11T09:21:14.727Z,30.20
2018-05-11T09:23:42.938Z,26.47
2018-05-11T09:26:11.142Z,25.30
2018-05-11T09:28:38.586Z,23.13
2018-05-11T09:31:06.026Z,23.33
2018-05-11T09:33:33.469Z,28.53
2018-05-11T09:36:01.682Z,20.90
2018-05-11T09:38:29.133Z,23.90
2018-05-11T09:40:56.578Z,19.87
2018-05-11T09:43:24.019Z,17.47
2018-05-11T09:45:51.456Z,28.50
2018-05-11T09:48:18.897Z,26.27
2018-05-11T09:50:46.346Z,28.80
2018-05-11T09:53:14.553Z,22.90
2018-05-11T09:55:42.766Z,22.47
2018-05-11T09:58:10.976Z,22.27
2018-05-11T10:00:38.413Z,32.73
2018-05-11T10:03:05.862Z,26.73
2018-05-11T10:05:33.318Z,21.57
2018-05-11T10:08:00.764Z,18.80
2018-05-11T10:10:28.198Z,28.20
2018-05-11T10:12:55.642Z,24.13
2018-05-11T10:15:23.951Z,15.40
2018-05-11T10:17:52.142Z,24.03
2018-05-11T10:20:20.359Z,21.73
2018-05-11T10:22:47.799Z,19.93
2018-05-11T10:25:15.242Z,13.57
2018-05-11T10:27:42.686Z,27.60
2018-05-11T10:32:44.851Z,17.97
2018-05-11T10:35:12.294Z,19.73
2018-05-11T10:37:40.510Z,21.07
2018-05-11T10:40:07.966Z,19.73
2018-05-11T10:42:35.423Z,19.03
2018-05-11T10:45:02.846Z,23.70
2018-05-11T10:47:31.056Z,21.97
2018-05-11T10:49:58.514Z,22.50
2018-05-11T10:52:26.722Z,25.80
2018-05-11T10:54:54.944Z,25.87
2018-05-11T10:57:22.382Z,27.20
2018-05-11T10:59:49.830Z,22.47
2018-05-11T11:02:17.342Z,24.87
2018-05-11T11:04:45.476Z,29.37
2018-05-11T11:07:12.915Z,27.80
2018-05-11T11:09:40.367Z,26.73
2018-05-11T11:12:07.834Z,31.10
2018-05-11T11:14:35.290Z,27.83
2018-05-11T11:17:03.494Z,27.70
2018-05-11T11:19:31.702Z,25.10
2018-05-11T11:21:59.150Z,26.30
2018-05-11T11:24:26.607Z,33.17
2018-05-11T11:26:54.050Z,29.07
2018-05-11T11:29:21.485Z,24.60
2018-05-11T11:31:48.926Z,29.13
2018-05-11T11:34:16.409Z,23.90
2018-05-11T11:36:44.581Z,22.30
2018-05-11T11:39:12.790Z,35.30
2018-05-11T11:41:40.230Z,21.57
2018-05-11T11:44:07.695Z,24.07
2018-05-11T11:46:35.134Z,25.80
2018-05-11T11:49:02.577Z,23.70
2018-05-11T11:51:30.018Z,32.93
2018-05-11T11:53:57.462Z,22.60
2018-05-11T11:56:24.940Z,28.03
2018-05-11T11:58:52.350Z,27.60
2018-05-11T12:01:19.789Z,23.07
2018-05-11T12:03:48.009Z,26.50
2018-05-11T12:06:16.222Z,21.27
2018-05-11T12:08:43.653Z,29.47
2018-05-11T12:11:11.103Z,26.03
2018-05-11T12:13:38.546Z,28.30
2018-05-11T12:16:06.755Z,25.27
2018-05-11T12:18:34.201Z,25.47
2018-05-11T12:21:01.649Z,25.17
2018-05-11T12:23:29.075Z,30.97
2018-05-11T12:25:57.281Z,33.97
2018-05-11T12:28:25.486Z,23.13
2018-05-11T12:30:53.703Z,29.10
2018-05-11T12:33:21.134Z,31.10
2018-05-11T12:35:48.578Z,25.50
2018-05-11T12:38:16.009Z,27.50
2018-05-11T12:40:43.466Z,25.77
2018-05-11T12:43:10.922Z,28.33
2018-05-11T12:45:38.379Z,25.43
2018-05-11T12:48:05.815Z,24.57
2018-05-11T12:50:33.258Z,26.13
2018-05-11T12:53:00.702Z,25.50
2018-05-11T12:55:28.905Z,28.30
2018-05-11T12:57:57.114Z,21.77
2018-05-11T13:00:25.330Z,23.37
2018-05-11T13:02:52.765Z,26.87
2018-05-11T13:05:20.218Z,20.97
2018-05-11T13:07:47.653Z,30.27
2018-05-11T13:10:15.870Z,26.10
2018-05-11T13:12:43.302Z,39.83
2018-05-11T13:15:10.750Z,34.37
2018-05-11T13:17:38.186Z,28.77
2018-05-11T13:20:06.401Z,27.07
2018-05-11T13:22:33.833Z,23.13
2018-05-11T13:25:01.282Z,25.73
2018-05-11T13:27:28.721Z,22.33
2018-05-11T13:29:56.167Z,23.13
2018-05-11T13:32:23.596Z,33.43
2018-05-11T13:34:51.828Z,23.07
2018-05-11T13:37:19.270Z,36.53
2018-05-11T13:39:46.715Z,29.23
2018-05-11T13:42:14.251Z,30.30
2018-05-11T13:44:41.605Z,25.33
2018-05-11T13:47:09.054Z,27.43
2018-05-11T13:49:36.485Z,25.83
2018-05-11T13:52:04.697Z,32.23
2018-05-11T13:54:32.129Z,25.00
2018-05-11T13:56:59.582Z,33.03
2018-05-11T13:59:27.018Z,22.30
2018-05-11T14:01:54.457Z,23.83
2018-05-11T14:04:21.905Z,25.27
2018-05-11T14:06:50.126Z,27.77
2018-05-11T14:09:17.562Z,32.03
2018-05-11T14:11:45.005Z,23.87
2018-05-11T14:14:12.454Z,21.83
2018-05-11T14:16:39.914Z,24.20
2018-05-11T14:19:08.109Z,23.67
2018-05-11T14:21:36.330Z,25.67
2018-05-11T14:24:03.771Z,22.40
2018-05-11T14:26:31.218Z,23.63
2018-05-11T14:28:58.654Z,28.27
2018-05-11T14:31:26.865Z,27.23
2018-05-11T14:33:55.073Z,26.80
2018-05-11T14:36:22.526Z,30.33
2018-05-11T14:38:49.953Z,26.83
2018-05-11T14:41:17.405Z,20.00
2018-05-11T14:43:45.612Z,29.57
2018-05-11T14:46:13.827Z,28.23
2018-05-11T14:48:41.266Z,25.83
2018-05-11T14:51:08.697Z,24.23
2018-05-11T14:53:36.134Z,20.33
2018-05-11T14:56:04.354Z,24.77
2018-05-11T14:58:31.785Z,21.30
2018-05-11T15:00:59.229Z,26.63
2018-05-11T15:03:26.674Z,22.60
2018-05-11T15:05:54.122Z,20.93
2018-05-11T15:08:21.561Z,30.50
2018-05-11T15:10:49.010Z,21.53
2018-05-11T15:13:16.458Z,20.17
2018-05-11T15:15:43.914Z,21.70
2018-05-11T15:18:11.362Z,21.00
2018-05-11T15:20:39.569Z,23.90
2018-05-11T15:23:07.773Z,25.13
2018-05-11T15:25:35.997Z,22.53
2018-05-11T15:28:03.434Z,23.23
2018-05-11T15:30:30.879Z,34.00
2018-05-11T15:32:58.330Z,26.10
2018-05-11T15:35:25.761Z,24.97
2018-05-11T15:37:53.205Z,25.20
2018-05-11T15:40:20.704Z,23.63
2018-05-11T15:42:48.853Z,24.23
2018-05-11T15:45:17.068Z,26.27
2018-05-11T15:47:44.510Z,20.90
2018-05-11T15:50:11.955Z,29.20
2018-05-11T15:52:39.408Z,21.50
2018-05-11T15:55:06.850Z,20.13
2018-05-11T15:57:34.306Z,22.93
2018-05-11T16:00:01.747Z,27.30
2018-05-11T16:02:29.194Z,20.20
2018-05-11T16:04:56.635Z,24.13
2018-05-11T16:07:24.078Z,25.80
2018-05-11T16:09:52.282Z,23.70
2018-05-11T16:12:20.502Z,24.70
2018-05-11T16:14:47.942Z,24.23
2018-05-11T16:17:15.386Z,28.13
2018-05-11T16:19:42.832Z,20.60
2018-05-11T16:22:11.046Z,32.40
2018-05-11T16:24:38.490Z,21.37
2018-05-11T16:27:05.941Z,22.33
2018-05-11T16:29:33.368Z,25.30
2018-05-11T16:32:01.592Z,27.97
2018-05-11T16:34:29.021Z,24.90
2018-05-11T16:36:56.471Z,25.20
2018-05-11T16:39:23.907Z,28.40
2018-05-11T16:41:51.353Z,35.27
2018-05-11T16:44:18.794Z,26.83
2018-05-11T16:46:46.238Z,23.67
2018-05-11T16:49:13.673Z,23.80
2018-05-11T16:51:41.117Z,32.40
2018-05-11T16:54:09.330Z,23.80
2018-05-11T16:56:37.539Z,23.03
2018-05-11T16:59:04.982Z,23.33
2018-05-11T17:01:32.438Z,23.23
2018-05-11T17:03:59.870Z,23.13
2018-05-11T17:06:28.078Z,23.50
2018-05-11T17:08:55.522Z,27.33
2018-05-11T17:11:22.973Z,21.80
2018-05-11T17:13:50.422Z,22.10
2018-05-11T17:16:18.631Z,19.53
2018-05-11T17:18:46.070Z,24.97
2018-05-11T17:21:13.910Z,30.13
2018-05-11T17:23:41.345Z,24.93
2018-05-11T17:26:09.106Z,27.70
2018-05-11T17:28:36.563Z,25.43
2018-05-11T17:31:04.011Z,24.93
2018-05-11T17:33:32.223Z,31.07
2018-05-11T17:35:59.669Z,23.60
2018-05-11T17:38:27.110Z,33.30
2018-05-11T17:40:54.554Z,29.33
2018-05-11T17:43:22.770Z,28.07
2018-05-11T17:45:50.222Z,27.90
2018-05-11T17:48:17.677Z,29.00
2018-05-11T17:50:45.115Z,28.63
2018-05-11T17:53:12.561Z,32.93
2018-05-11T17:55:39.997Z,27.13
2018-05-11T17:58:08.323Z,24.80
2018-05-11T18:00:35.741Z,30.90
2018-05-11T18:03:03.969Z,24.53
2018-05-11T18:05:31.398Z,19.07
2018-05-11T18:07:58.855Z,22.60
2018-05-11T18:10:26.299Z,32.70
2018-05-11T18:12:53.747Z,16.80
2018-05-11T18:15:21.183Z,20.60
2018-05-11T18:17:48.629Z,19.97
2018-05-11T18:20:16.850Z,16.43
2018-05-11T18:22:45.045Z,18.23
2018-05-11T18:25:12.493Z,18.53
2018-05-11T18:27:39.951Z,17.03
2018-05-11T18:30:07.388Z,21.00
2018-05-11T18:32:34.828Z,13.10
2018-05-11T18:35:02.271Z,15.60
2018-05-11T18:37:29.722Z,15.13
2018-05-11T18:39:57.930Z,14.50
2018-05-11T18:42:25.370Z,18.77
2018-05-11T18:44:52.812Z,18.80
2018-05-11T18:47:20.257Z,15.27
2018-05-11T18:49:48.457Z,16.30
2018-05-11T18:52:16.669Z,20.60
2018-05-11T18:54:44.972Z,18.00
2018-05-11T18:57:12.318Z,18.97
2018-05-11T18:59:41.274Z,18.20
2018-05-11T19:02:08.707Z,21.83
2018-05-11T19:04:36.159Z,27.00
2018-05-11T19:07:03.597Z,22.00
2018-05-11T19:09:31.818Z,17.33
2018-05-11T19:11:59.245Z,20.60
2018-05-11T19:14:26.701Z,17.50
2018-05-11T19:16:54.146Z,17.47
2018-05-11T19:19:21.589Z,19.97
2018-05-11T19:21:49.025Z,28.53
2018-05-11T19:24:16.465Z,18.70
2018-05-11T19:26:43.911Z,24.40
2018-05-11T19:29:11.351Z,21.40
2018-05-11T19:31:39.558Z,21.20
2018-05-11T19:34:07.829Z,20.63
2018-05-11T19:36:35.270Z,19.93
2018-05-11T19:39:02.714Z,21.60
2018-05-11T19:41:30.927Z,23.07
2018-05-11T19:43:59.143Z,28.33
2018-05-11T19:46:26.587Z,24.13
2018-05-11T19:48:54.034Z,29.27
2018-05-11T19:51:21.469Z,19.43
2018-05-11T19:53:49.681Z,20.63
2018-05-11T19:56:17.122Z,24.17
2018-05-11T19:58:44.577Z,23.50
2018-05-11T20:01:12.012Z,21.77
2018-05-11T20:03:39.458Z,41.23
2018-05-11T20:06:06.900Z,27.23
2018-05-11T20:08:34.342Z,22.90
2018-05-11T20:11:01.919Z,26.70
2018-05-11T20:13:29.236Z,25.07
2018-05-11T20:15:56.669Z,26.70
2018-05-11T20:18:24.113Z,26.67
2018-05-11T20:20:51.562Z,25.20
2018-05-11T20:23:19.774Z,22.13
2018-05-11T20:25:47.978Z,32.30
2018-05-11T20:28:15.421Z,28.93
2018-05-11T20:30:42.861Z,32.07
2018-05-11T20:33:10.303Z,29.57
2018-05-11T20:35:38.506Z,28.23
2018-05-11T20:38:06.723Z,22.80
2018-05-11T20:40:34.158Z,23.20
2018-05-11T20:43:01.606Z,27.37
2018-05-11T20:45:29.046Z,30.60
2018-05-11T20:47:57.261Z,28.23
2018-05-11T20:50:25.461Z,26.07
2018-05-11T20:52:53.671Z,28.17
2018-05-11T20:55:21.886Z,36.73
2018-05-11T20:57:49.399Z,28.80
2018-05-11T21:00:16.770Z,25.40
2018-05-11T21:02:44.211Z,30.80
2018-05-11T21:05:11.664Z,30.27
2018-05-11T21:07:39.099Z,26.53
2018-05-11T21:10:06.541Z,27.37
2018-05-11T21:12:33.983Z,23.20
2018-05-11T21:15:01.429Z,30.50
2018-05-11T21:17:29.635Z,28.83
2018-05-11T21:19:57.862Z,26.63
2018-05-11T21:22:25.302Z,31.80
2018-05-11T21:24:52.746Z,26.33
2018-05-11T21:27:20.202Z,31.93
2018-05-11T21:29:48.401Z,32.70
2018-05-11T21:32:15.843Z,29.70
2018-05-11T21:34:43.291Z,33.60
2018-05-11T21:37:10.731Z,28.60
2018-05-11T21:39:38.962Z,24.77
2018-05-11T21:42:06.402Z,27.77
2018-05-11T21:44:34.609Z,31.47
2018-05-11T21:47:02.818Z,30.47
2018-05-11T21:49:31.021Z,27.43
2018-05-11T21:51:58.457Z,26.87
2018-05-11T21:54:25.894Z,26.10
2018-05-11T21:56:53.337Z,26.70
2018-05-11T21:59:20.782Z,31.73
2018-05-11T22:01:48.227Z,28.30
2018-05-11T22:04:15.680Z,29.43
2018-05-11T22:06:43.124Z,27.30
2018-05-11T22:09:10.561Z,27.43
2018-05-11T22:11:38.774Z,23.67
2018-05-11T22:14:06.218Z,25.40
2018-05-11T22:16:33.658Z,26.10
2018-05-11T22:19:01.098Z,25.80
2018-05-11T22:21:29.301Z,26.10
2018-05-11T22:23:57.510Z,27.00
2018-05-11T22:26:24.951Z,26.87
2018-05-11T22:28:52.401Z,30.73
2018-05-11T22:31:19.842Z,27.10
2018-05-11T22:33:48.045Z,29.70
2018-05-11T22:36:16.250Z,26.13
2018-05-11T22:38:44.453Z,31.60
2018-05-11T22:41:11.894Z,29.63
2018-05-11T22:43:39.335Z,27.83
2018-05-11T22:46:06.786Z,28.13
2018-05-11T22:48:34.985Z,31.50
2018-05-11T22:51:03.199Z,24.20
2018-05-11T22:53:31.397Z,25.10
2018-05-11T22:55:59.610Z,28.80
2018-05-11T22:58:27.045Z,36.40
2018-05-11T23:00:54.486Z,29.20
2018-05-11T23:03:21.926Z,29.10
2018-05-11T23:05:50.246Z,30.27
2018-05-11T23:08:18.447Z,28.53
2018-05-11T23:10:46.659Z,25.77
2018-05-11T23:13:14.089Z,28.63
2018-05-11T23:15:42.302Z,29.50
2018-05-11T23:18:09.733Z,39.63
2018-05-11T23:20:37.174Z,29.10
2018-05-11T23:23:04.614Z,27.90
2018-05-11T23:25:32.053Z,24.50
2018-05-11T23:28:00.263Z,28.47
2018-05-11T23:30:28.477Z,26.90
2018-05-11T23:32:55.909Z,28.90
2018-05-11T23:35:23.349Z,24.50
2018-05-11T23:37:50.799Z,30.03
2018-05-11T23:40:18.238Z,28.33
2018-05-11T23:42:45.679Z,30.77
2018-05-11T23:45:13.891Z,29.97
2018-05-11T23:47:41.328Z,27.33
2018-05-11T23:50:08.770Z,27.03
2018-05-11T23:52:36.205Z,26.27
2018-05-11T23:55:03.658Z,25.00
2018-05-11T23:57:31.857Z,23.43
2018-05-11T23:59:59.302Z,25.40
